sensor_id;sensor_type;location;lat;lon;timestamp;P1;durP1;ratioP1;P2;durP2;ratioP2
37937;SDS011;23763;48.130;11.602;2023-02-28T00:00:19;4.23;;;2.50;;
37937;SDS011;23763;48.130;11.602;2023-02-28T00:02:45;5.30;;;2.53;;
37937;SDS011;23763;48.130;11.602;2023-02-28T00:05:13;6.63;;;2.67;;
37937;SDS011;23763;48.130;11.602;2023-02-28T00:07:40;6.33;;;2.70;;
37937;SDS011;23763;48.130;11.602;2023-02-28T00:10:07;3.23;;;2.60;;
37937;SDS011;23763;48.130;11.602;2023-02-28T00:12:35;2.60;;;2.40;;
37937;SDS011;23763;48.130;11.602;2023-02-28T00:15:01;6.33;;;3.03;;
37937;SDS011;23763;48.130;11.602;2023-02-28T00:17:30;4.13;;;2.77;;
37937;SDS011;23763;48.130;11.602;2023-02-28T00:19:56;5.60;;;2.67;;
37937;SDS011;23763;48.130;11.602;2023-02-28T00:22:22;4.00;;;2.90;;
37937;SDS011;23763;48.130;11.602;2023-02-28T00:24:47;5.13;;;2.83;;
37937;SDS011;23763;48.130;11.602;2023-02-28T00:27:14;3.87;;;2.40;;
37937;SDS011;23763;48.130;11.602;2023-02-28T00:29:40;4.23;;;2.60;;
37937;SDS011;23763;48.130;11.602;2023-02-28T00:32:05;4.60;;;2.60;;
37937;SDS011;23763;48.130;11.602;2023-02-28T00:34:31;3.63;;;2.93;;
37937;SDS011;23763;48.130;11.602;2023-02-28T00:37:03;4.03;;;2.87;;
37937;SDS011;23763;48.130;11.602;2023-02-28T00:39:33;3.80;;;2.90;;
37937;SDS011;23763;48.130;11.602;2023-02-28T00:42:00;5.70;;;3.03;;
37937;SDS011;23763;48.130;11.602;2023-02-28T00:44:27;6.20;;;3.30;;
37937;SDS011;23763;48.130;11.602;2023-02-28T00:46:53;5.50;;;2.77;;
37937;SDS011;23763;48.130;11.602;2023-02-28T00:49:19;3.77;;;2.90;;
37937;SDS011;23763;48.130;11.602;2023-02-28T00:51:45;5.80;;;2.97;;
37937;SDS011;23763;48.130;11.602;2023-02-28T00:54:11;7.80;;;2.90;;
37937;SDS011;23763;48.130;11.602;2023-02-28T00:56:37;4.33;;;2.60;;
37937;SDS011;23763;48.130;11.602;2023-02-28T00:59:02;5.73;;;2.63;;
37937;SDS011;23763;48.130;11.602;2023-02-28T01:01:28;4.10;;;2.37;;
37937;SDS011;23763;48.130;11.602;2023-02-28T01:03:53;3.33;;;2.53;;
37937;SDS011;23763;48.130;11.602;2023-02-28T01:06:19;5.17;;;2.90;;
37937;SDS011;23763;48.130;11.602;2023-02-28T01:08:45;5.10;;;2.60;;
37937;SDS011;23763;48.130;11.602;2023-02-28T01:11:11;5.23;;;2.83;;
37937;SDS011;23763;48.130;11.602;2023-02-28T01:13:39;6.40;;;3.17;;
37937;SDS011;23763;48.130;11.602;2023-02-28T01:16:06;5.83;;;3.20;;
37937;SDS011;23763;48.130;11.602;2023-02-28T01:18:32;8.37;;;3.13;;
37937;SDS011;23763;48.130;11.602;2023-02-28T01:20:57;5.90;;;3.47;;
37937;SDS011;23763;48.130;11.602;2023-02-28T01:23:23;4.03;;;2.77;;
37937;SDS011;23763;48.130;11.602;2023-02-28T01:25:49;4.17;;;2.90;;
37937;SDS011;23763;48.130;11.602;2023-02-28T01:28:15;5.07;;;2.67;;
37937;SDS011;23763;48.130;11.602;2023-02-28T01:30:41;4.30;;;3.07;;
37937;SDS011;23763;48.130;11.602;2023-02-28T01:33:07;6.63;;;3.40;;
37937;SDS011;23763;48.130;11.602;2023-02-28T01:35:35;3.80;;;3.17;;
37937;SDS011;23763;48.130;11.602;2023-02-28T01:38:02;4.23;;;2.87;;
37937;SDS011;23763;48.130;11.602;2023-02-28T01:40:27;5.73;;;3.13;;
37937;SDS011;23763;48.130;11.602;2023-02-28T01:42:53;5.60;;;2.93;;
37937;SDS011;23763;48.130;11.602;2023-02-28T01:45:26;6.20;;;3.00;;
37937;SDS011;23763;48.130;11.602;2023-02-28T01:47:58;4.97;;;2.97;;
37937;SDS011;23763;48.130;11.602;2023-02-28T01:50:29;3.57;;;3.17;;
37937;SDS011;23763;48.130;11.602;2023-02-28T01:52:59;4.83;;;2.90;;
37937;SDS011;23763;48.130;11.602;2023-02-28T01:55:29;3.60;;;2.60;;
37937;SDS011;23763;48.130;11.602;2023-02-28T01:57:57;5.73;;;3.17;;
37937;SDS011;23763;48.130;11.602;2023-02-28T02:00:26;3.27;;;2.70;;
37937;SDS011;23763;48.130;11.602;2023-02-28T02:02:53;5.63;;;3.23;;
37937;SDS011;23763;48.130;11.602;2023-02-28T02:05:22;6.53;;;2.77;;
37937;SDS011;23763;48.130;11.602;2023-02-28T02:07:52;6.70;;;3.07;;
37937;SDS011;23763;48.130;11.602;2023-02-28T02:10:21;4.33;;;2.77;;
37937;SDS011;23763;48.130;11.602;2023-02-28T02:30:05;4.70;;;3.10;;
37937;SDS011;23763;48.130;11.602;2023-02-28T02:36:06;5.43;;;3.03;;
37937;SDS011;23763;48.130;11.602;2023-02-28T02:44:18;3.97;;;3.03;;
37937;SDS011;23763;48.130;11.602;2023-02-28T02:47:11;6.27;;;3.33;;
37937;SDS011;23763;48.130;11.602;2023-02-28T02:49:41;4.13;;;2.77;;
37937;SDS011;23763;48.130;11.602;2023-02-28T02:52:12;3.77;;;2.90;;
37937;SDS011;23763;48.130;11.602;2023-02-28T02:54:43;3.60;;;2.70;;
37937;SDS011;23763;48.130;11.602;2023-02-28T02:57:13;5.33;;;3.50;;
37937;SDS011;23763;48.130;11.602;2023-02-28T02:59:47;5.93;;;3.30;;
37937;SDS011;23763;48.130;11.602;2023-02-28T03:02:16;3.27;;;2.80;;
37937;SDS011;23763;48.130;11.602;2023-02-28T03:04:45;5.00;;;3.03;;
37937;SDS011;23763;48.130;11.602;2023-02-28T03:07:15;6.60;;;3.30;;
37937;SDS011;23763;48.130;11.602;2023-02-28T03:09:49;4.83;;;3.00;;
37937;SDS011;23763;48.130;11.602;2023-02-28T03:12:18;3.60;;;3.07;;
37937;SDS011;23763;48.130;11.602;2023-02-28T03:14:55;5.90;;;4.03;;
37937;SDS011;23763;48.130;11.602;2023-02-28T03:17:38;5.47;;;3.67;;
37937;SDS011;23763;48.130;11.602;2023-02-28T03:25:56;4.03;;;2.67;;
37937;SDS011;23763;48.130;11.602;2023-02-28T03:28:32;5.57;;;3.70;;
37937;SDS011;23763;48.130;11.602;2023-02-28T03:31:20;5.37;;;3.50;;
37937;SDS011;23763;48.130;11.602;2023-02-28T03:33:53;4.33;;;3.30;;
37937;SDS011;23763;48.130;11.602;2023-02-28T03:36:24;6.30;;;3.27;;
37937;SDS011;23763;48.130;11.602;2023-02-28T03:39:02;6.03;;;3.50;;
37937;SDS011;23763;48.130;11.602;2023-02-28T03:41:52;6.63;;;3.53;;
37937;SDS011;23763;48.130;11.602;2023-02-28T03:44:28;11.83;;;3.53;;
37937;SDS011;23763;48.130;11.602;2023-02-28T03:46:59;6.90;;;2.97;;
37937;SDS011;23763;48.130;11.602;2023-02-28T03:50:03;5.37;;;3.50;;
37937;SDS011;23763;48.130;11.602;2023-02-28T03:52:31;8.53;;;3.23;;
37937;SDS011;23763;48.130;11.602;2023-02-28T03:55:02;10.73;;;4.87;;
37937;SDS011;23763;48.130;11.602;2023-02-28T03:57:34;6.83;;;4.00;;
37937;SDS011;23763;48.130;11.602;2023-02-28T04:00:12;5.87;;;3.63;;
37937;SDS011;23763;48.130;11.602;2023-02-28T04:02:44;5.97;;;4.10;;
37937;SDS011;23763;48.130;11.602;2023-02-28T04:05:10;6.40;;;3.80;;
37937;SDS011;23763;48.130;11.602;2023-02-28T04:07:36;5.10;;;3.83;;
37937;SDS011;23763;48.130;11.602;2023-02-28T04:10:02;6.37;;;4.00;;
37937;SDS011;23763;48.130;11.602;2023-02-28T04:12:29;8.10;;;5.10;;
37937;SDS011;23763;48.130;11.602;2023-02-28T04:14:54;6.60;;;3.80;;
37937;SDS011;23763;48.130;11.602;2023-02-28T04:17:20;7.97;;;4.30;;
37937;SDS011;23763;48.130;11.602;2023-02-28T04:19:46;6.37;;;3.77;;
37937;SDS011;23763;48.130;11.602;2023-02-28T04:22:11;6.80;;;4.27;;
37937;SDS011;23763;48.130;11.602;2023-02-28T04:24:37;7.40;;;4.00;;
37937;SDS011;23763;48.130;11.602;2023-02-28T04:27:06;8.50;;;4.80;;
37937;SDS011;23763;48.130;11.602;2023-02-28T04:29:33;8.00;;;4.50;;
37937;SDS011;23763;48.130;11.602;2023-02-28T04:31:59;7.83;;;4.90;;
37937;SDS011;23763;48.130;11.602;2023-02-28T04:34:26;5.97;;;4.60;;
37937;SDS011;23763;48.130;11.602;2023-02-28T04:36:54;8.60;;;5.17;;
37937;SDS011;23763;48.130;11.602;2023-02-28T04:39:20;6.63;;;4.67;;
37937;SDS011;23763;48.130;11.602;2023-02-28T04:41:46;7.20;;;4.53;;
37937;SDS011;23763;48.130;11.602;2023-02-28T04:44:13;8.57;;;5.67;;
37937;SDS011;23763;48.130;11.602;2023-02-28T04:46:39;10.27;;;5.03;;
37937;SDS011;23763;48.130;11.602;2023-02-28T04:49:05;7.87;;;4.80;;
37937;SDS011;23763;48.130;11.602;2023-02-28T04:51:30;10.80;;;5.13;;
37937;SDS011;23763;48.130;11.602;2023-02-28T04:53:56;10.57;;;5.13;;
37937;SDS011;23763;48.130;11.602;2023-02-28T04:56:21;10.70;;;6.10;;
37937;SDS011;23763;48.130;11.602;2023-02-28T04:58:47;12.03;;;6.17;;
37937;SDS011;23763;48.130;11.602;2023-02-28T05:03:45;8.50;;;6.03;;
37937;SDS011;23763;48.130;11.602;2023-02-28T05:06:12;9.77;;;5.83;;
37937;SDS011;23763;48.130;11.602;2023-02-28T05:08:38;8.60;;;5.43;;
37937;SDS011;23763;48.130;11.602;2023-02-28T05:11:05;7.73;;;6.10;;
37937;SDS011;23763;48.130;11.602;2023-02-28T05:13:33;7.80;;;5.90;;
37937;SDS011;23763;48.130;11.602;2023-02-28T05:16:00;12.07;;;6.47;;
37937;SDS011;23763;48.130;11.602;2023-02-28T05:18:26;11.80;;;6.93;;
37937;SDS011;23763;48.130;11.602;2023-02-28T05:20:51;8.33;;;6.20;;
37937;SDS011;23763;48.130;11.602;2023-02-28T05:23:17;11.83;;;6.13;;
37937;SDS011;23763;48.130;11.602;2023-02-28T05:25:44;9.30;;;6.10;;
37937;SDS011;23763;48.130;11.602;2023-02-28T05:28:10;12.30;;;6.50;;
37937;SDS011;23763;48.130;11.602;2023-02-28T05:30:35;14.20;;;8.30;;
37937;SDS011;23763;48.130;11.602;2023-02-28T05:33:01;13.07;;;6.90;;
37937;SDS011;23763;48.130;11.602;2023-02-28T05:35:27;11.40;;;7.50;;
37937;SDS011;23763;48.130;11.602;2023-02-28T05:37:52;10.47;;;7.03;;
37937;SDS011;23763;48.130;11.602;2023-02-28T05:40:18;10.17;;;6.63;;
37937;SDS011;23763;48.130;11.602;2023-02-28T05:42:47;10.90;;;6.90;;
37937;SDS011;23763;48.130;11.602;2023-02-28T05:45:13;9.47;;;6.93;;
37937;SDS011;23763;48.130;11.602;2023-02-28T05:47:39;12.90;;;7.10;;
37937;SDS011;23763;48.130;11.602;2023-02-28T05:50:05;10.20;;;7.50;;
37937;SDS011;23763;48.130;11.602;2023-02-28T05:52:31;11.30;;;6.73;;
37937;SDS011;23763;48.130;11.602;2023-02-28T05:54:57;11.80;;;7.97;;
37937;SDS011;23763;48.130;11.602;2023-02-28T05:57:22;13.87;;;7.93;;
37937;SDS011;23763;48.130;11.602;2023-02-28T05:59:48;13.10;;;7.67;;
37937;SDS011;23763;48.130;11.602;2023-02-28T06:02:15;12.10;;;8.23;;
37937;SDS011;23763;48.130;11.602;2023-02-28T06:04:42;15.20;;;7.53;;
37937;SDS011;23763;48.130;11.602;2023-02-28T06:07:08;16.07;;;8.27;;
37937;SDS011;23763;48.130;11.602;2023-02-28T06:09:35;13.30;;;8.87;;
37937;SDS011;23763;48.130;11.602;2023-02-28T06:12:01;13.63;;;8.43;;
37937;SDS011;23763;48.130;11.602;2023-02-28T06:14:30;15.00;;;8.73;;
37937;SDS011;23763;48.130;11.602;2023-02-28T06:16:57;13.00;;;7.87;;
37937;SDS011;23763;48.130;11.602;2023-02-28T06:19:24;13.10;;;8.93;;
37937;SDS011;23763;48.130;11.602;2023-02-28T06:21:52;13.10;;;8.23;;
37937;SDS011;23763;48.130;11.602;2023-02-28T06:24:19;13.50;;;8.27;;
37937;SDS011;23763;48.130;11.602;2023-02-28T06:26:45;12.77;;;7.87;;
37937;SDS011;23763;48.130;11.602;2023-02-28T06:29:11;12.17;;;8.60;;
37937;SDS011;23763;48.130;11.602;2023-02-28T06:31:42;14.77;;;8.57;;
37937;SDS011;23763;48.130;11.602;2023-02-28T06:34:11;15.53;;;9.00;;
37937;SDS011;23763;48.130;11.602;2023-02-28T06:36:38;11.50;;;8.70;;
37937;SDS011;23763;48.130;11.602;2023-02-28T06:39:05;15.90;;;8.83;;
37937;SDS011;23763;48.130;11.602;2023-02-28T06:41:32;14.77;;;8.70;;
37937;SDS011;23763;48.130;11.602;2023-02-28T06:44:02;12.53;;;8.43;;
37937;SDS011;23763;48.130;11.602;2023-02-28T06:46:42;16.17;;;9.53;;
37937;SDS011;23763;48.130;11.602;2023-02-28T06:49:08;14.73;;;9.40;;
37937;SDS011;23763;48.130;11.602;2023-02-28T06:51:35;12.03;;;8.93;;
37937;SDS011;23763;48.130;11.602;2023-02-28T06:54:02;17.60;;;10.07;;
37937;SDS011;23763;48.130;11.602;2023-02-28T06:56:28;15.77;;;9.77;;
37937;SDS011;23763;48.130;11.602;2023-02-28T06:58:54;17.20;;;9.07;;
37937;SDS011;23763;48.130;11.602;2023-02-28T07:01:21;16.30;;;9.50;;
37937;SDS011;23763;48.130;11.602;2023-02-28T07:03:49;13.60;;;9.37;;
37937;SDS011;23763;48.130;11.602;2023-02-28T07:06:17;13.93;;;9.50;;
37937;SDS011;23763;48.130;11.602;2023-02-28T07:08:43;16.80;;;10.03;;
37937;SDS011;23763;48.130;11.602;2023-02-28T07:11:09;16.23;;;9.80;;
37937;SDS011;23763;48.130;11.602;2023-02-28T07:13:35;15.43;;;9.47;;
37937;SDS011;23763;48.130;11.602;2023-02-28T07:16:03;16.63;;;10.50;;
37937;SDS011;23763;48.130;11.602;2023-02-28T07:18:31;13.67;;;9.93;;
37937;SDS011;23763;48.130;11.602;2023-02-28T07:20:57;12.33;;;9.60;;
37937;SDS011;23763;48.130;11.602;2023-02-28T07:23:23;16.93;;;9.13;;
37937;SDS011;23763;48.130;11.602;2023-02-28T07:25:49;16.03;;;9.97;;
37937;SDS011;23763;48.130;11.602;2023-02-28T07:28:16;19.83;;;12.80;;
37937;SDS011;23763;48.130;11.602;2023-02-28T07:30:41;14.40;;;9.50;;
37937;SDS011;23763;48.130;11.602;2023-02-28T07:33:08;17.90;;;10.20;;
37937;SDS011;23763;48.130;11.602;2023-02-28T07:35:33;19.63;;;11.83;;
37937;SDS011;23763;48.130;11.602;2023-02-28T07:37:59;36.87;;;18.97;;
37937;SDS011;23763;48.130;11.602;2023-02-28T07:40:25;34.67;;;17.00;;
37937;SDS011;23763;48.130;11.602;2023-02-28T07:42:51;33.13;;;16.20;;
37937;SDS011;23763;48.130;11.602;2023-02-28T07:45:17;29.73;;;15.93;;
37937;SDS011;23763;48.130;11.602;2023-02-28T07:47:42;19.70;;;11.07;;
37937;SDS011;23763;48.130;11.602;2023-02-28T07:50:09;23.20;;;12.37;;
37937;SDS011;23763;48.130;11.602;2023-02-28T07:52:37;15.83;;;10.50;;
37937;SDS011;23763;48.130;11.602;2023-02-28T07:55:03;16.33;;;10.23;;
37937;SDS011;23763;48.130;11.602;2023-02-28T07:57:30;14.90;;;9.87;;
37937;SDS011;23763;48.130;11.602;2023-02-28T07:59:56;18.50;;;10.37;;
37937;SDS011;23763;48.130;11.602;2023-02-28T08:02:21;16.53;;;9.00;;
37937;SDS011;23763;48.130;11.602;2023-02-28T08:04:47;14.70;;;9.60;;
37937;SDS011;23763;48.130;11.602;2023-02-28T08:07:13;14.80;;;10.13;;
37937;SDS011;23763;48.130;11.602;2023-02-28T08:09:39;13.20;;;9.67;;
37937;SDS011;23763;48.130;11.602;2023-02-28T08:12:05;15.17;;;10.23;;
37937;SDS011;23763;48.130;11.602;2023-02-28T08:14:32;15.17;;;10.40;;
37937;SDS011;23763;48.130;11.602;2023-02-28T08:16:58;17.03;;;10.23;;
37937;SDS011;23763;48.130;11.602;2023-02-28T08:19:23;14.50;;;10.27;;
37937;SDS011;23763;48.130;11.602;2023-02-28T08:21:49;13.30;;;10.20;;
37937;SDS011;23763;48.130;11.602;2023-02-28T08:24:17;12.67;;;8.47;;
37937;SDS011;23763;48.130;11.602;2023-02-28T08:26:43;15.93;;;9.63;;
37937;SDS011;23763;48.130;11.602;2023-02-28T08:29:08;14.83;;;9.20;;
37937;SDS011;23763;48.130;11.602;2023-02-28T08:31:34;13.90;;;9.57;;
37937;SDS011;23763;48.130;11.602;2023-02-28T08:34:04;20.73;;;13.33;;
37937;SDS011;23763;48.130;11.602;2023-02-28T08:36:33;17.73;;;10.90;;
37937;SDS011;23763;48.130;11.602;2023-02-28T08:38:59;13.50;;;10.03;;
37937;SDS011;23763;48.130;11.602;2023-02-28T08:41:25;14.00;;;9.87;;
37937;SDS011;23763;48.130;11.602;2023-02-28T08:43:51;13.40;;;9.40;;
37937;SDS011;23763;48.130;11.602;2023-02-28T08:46:16;15.40;;;10.03;;
37937;SDS011;23763;48.130;11.602;2023-02-28T08:48:42;14.23;;;9.43;;
37937;SDS011;23763;48.130;11.602;2023-02-28T08:51:10;14.67;;;9.07;;
37937;SDS011;23763;48.130;11.602;2023-02-28T08:53:38;12.30;;;9.43;;
37937;SDS011;23763;48.130;11.602;2023-02-28T08:58:30;13.90;;;9.07;;
37937;SDS011;23763;48.130;11.602;2023-02-28T09:00:56;14.67;;;10.27;;
37937;SDS011;23763;48.130;11.602;2023-02-28T09:03:22;15.03;;;9.77;;
37937;SDS011;23763;48.130;11.602;2023-02-28T09:05:51;16.53;;;10.07;;
37937;SDS011;23763;48.130;11.602;2023-02-28T09:08:25;16.07;;;10.50;;
37937;SDS011;23763;48.130;11.602;2023-02-28T09:10:52;16.30;;;10.03;;
37937;SDS011;23763;48.130;11.602;2023-02-28T09:13:19;15.03;;;10.30;;
37937;SDS011;23763;48.130;11.602;2023-02-28T09:15:45;17.87;;;10.30;;
37937;SDS011;23763;48.130;11.602;2023-02-28T09:18:10;15.50;;;9.47;;
37937;SDS011;23763;48.130;11.602;2023-02-28T09:20:40;13.50;;;10.47;;
37937;SDS011;23763;48.130;11.602;2023-02-28T09:23:06;18.03;;;10.63;;
37937;SDS011;23763;48.130;11.602;2023-02-28T09:25:33;16.23;;;11.10;;
37937;SDS011;23763;48.130;11.602;2023-02-28T09:27:59;15.57;;;10.80;;
37937;SDS011;23763;48.130;11.602;2023-02-28T09:30:25;16.07;;;10.17;;
37937;SDS011;23763;48.130;11.602;2023-02-28T09:32:50;16.20;;;10.13;;
37937;SDS011;23763;48.130;11.602;2023-02-28T09:35:20;17.30;;;10.77;;
37937;SDS011;23763;48.130;11.602;2023-02-28T09:37:47;13.40;;;10.53;;
37937;SDS011;23763;48.130;11.602;2023-02-28T09:40:13;14.83;;;10.20;;
37937;SDS011;23763;48.130;11.602;2023-02-28T09:42:42;13.37;;;10.27;;
37937;SDS011;23763;48.130;11.602;2023-02-28T09:45:16;18.23;;;10.27;;
37937;SDS011;23763;48.130;11.602;2023-02-28T09:47:45;19.13;;;10.47;;
37937;SDS011;23763;48.130;11.602;2023-02-28T09:52:51;17.93;;;10.60;;
37937;SDS011;23763;48.130;11.602;2023-02-28T09:55:20;14.50;;;10.20;;
37937;SDS011;23763;48.130;11.602;2023-02-28T09:57:47;14.93;;;10.10;;
37937;SDS011;23763;48.130;11.602;2023-02-28T10:00:18;16.20;;;10.00;;
37937;SDS011;23763;48.130;11.602;2023-02-28T10:05:41;20.43;;;10.90;;
37937;SDS011;23763;48.130;11.602;2023-02-28T10:08:16;15.40;;;9.53;;
37937;SDS011;23763;48.130;11.602;2023-02-28T10:10:51;16.47;;;11.17;;
37937;SDS011;23763;48.130;11.602;2023-02-28T10:13:24;15.37;;;10.53;;
37937;SDS011;23763;48.130;11.602;2023-02-28T10:16:07;14.93;;;10.00;;
37937;SDS011;23763;48.130;11.602;2023-02-28T10:18:46;18.17;;;10.50;;
37937;SDS011;23763;48.130;11.602;2023-02-28T10:21:57;16.10;;;10.80;;
37937;SDS011;23763;48.130;11.602;2023-02-28T10:24:30;16.87;;;11.33;;
37937;SDS011;23763;48.130;11.602;2023-02-28T10:27:01;18.20;;;11.97;;
37937;SDS011;23763;48.130;11.602;2023-02-28T10:29:56;16.63;;;10.57;;
37937;SDS011;23763;48.130;11.602;2023-02-28T10:32:27;18.70;;;11.77;;
37937;SDS011;23763;48.130;11.602;2023-02-28T10:35:00;17.43;;;11.80;;
37937;SDS011;23763;48.130;11.602;2023-02-28T10:37:38;23.67;;;13.30;;
37937;SDS011;23763;48.130;11.602;2023-02-28T10:43:05;17.17;;;11.00;;
37937;SDS011;23763;48.130;11.602;2023-02-28T10:45:31;18.37;;;10.97;;
37937;SDS011;23763;48.130;11.602;2023-02-28T11:03:50;18.53;;;12.07;;
37937;SDS011;23763;48.130;11.602;2023-02-28T11:06:21;15.73;;;10.13;;
37937;SDS011;23763;48.130;11.602;2023-02-28T11:08:52;20.97;;;12.77;;
37937;SDS011;23763;48.130;11.602;2023-02-28T11:11:20;17.27;;;10.37;;
37937;SDS011;23763;48.130;11.602;2023-02-28T11:13:50;13.23;;;10.37;;
37937;SDS011;23763;48.130;11.602;2023-02-28T11:16:18;20.13;;;11.40;;
37937;SDS011;23763;48.130;11.602;2023-02-28T11:21:23;13.20;;;10.17;;
37937;SDS011;23763;48.130;11.602;2023-02-28T11:26:49;15.50;;;10.30;;
37937;SDS011;23763;48.130;11.602;2023-02-28T11:29:20;19.13;;;11.93;;
37937;SDS011;23763;48.130;11.602;2023-02-28T11:34:38;15.07;;;10.53;;
37937;SDS011;23763;48.130;11.602;2023-02-28T11:37:08;16.33;;;11.43;;
37937;SDS011;23763;48.130;11.602;2023-02-28T11:39:40;16.83;;;11.80;;
37937;SDS011;23763;48.130;11.602;2023-02-28T11:47:56;17.07;;;11.07;;
37937;SDS011;23763;48.130;11.602;2023-02-28T11:50:26;15.57;;;11.27;;
37937;SDS011;23763;48.130;11.602;2023-02-28T11:53:01;14.20;;;9.77;;
37937;SDS011;23763;48.130;11.602;2023-02-28T11:55:36;20.20;;;10.37;;
37937;SDS011;23763;48.130;11.602;2023-02-28T12:04:10;14.30;;;10.00;;
37937;SDS011;23763;48.130;11.602;2023-02-28T12:06:50;15.87;;;10.67;;
37937;SDS011;23763;48.130;11.602;2023-02-28T12:12:23;16.37;;;10.60;;
37937;SDS011;23763;48.130;11.602;2023-02-28T12:17:51;16.67;;;10.17;;
37937;SDS011;23763;48.130;11.602;2023-02-28T12:29:19;14.07;;;9.90;;
37937;SDS011;23763;48.130;11.602;2023-02-28T12:31:49;14.27;;;9.27;;
37937;SDS011;23763;48.130;11.602;2023-02-28T12:34:22;15.67;;;10.57;;
37937;SDS011;23763;48.130;11.602;2023-02-28T12:36:53;16.63;;;9.70;;
37937;SDS011;23763;48.130;11.602;2023-02-28T12:39:25;20.30;;;10.40;;
37937;SDS011;23763;48.130;11.602;2023-02-28T12:41:56;16.47;;;9.67;;
37937;SDS011;23763;48.130;11.602;2023-02-28T12:47:05;12.97;;;8.53;;
37937;SDS011;23763;48.130;11.602;2023-02-28T12:49:39;14.13;;;9.63;;
37937;SDS011;23763;48.130;11.602;2023-02-28T12:52:13;13.37;;;9.20;;
37937;SDS011;23763;48.130;11.602;2023-02-28T12:54:46;14.93;;;9.20;;
37937;SDS011;23763;48.130;11.602;2023-02-28T12:57:29;12.33;;;9.13;;
37937;SDS011;23763;48.130;11.602;2023-02-28T12:59:58;12.17;;;9.57;;
37937;SDS011;23763;48.130;11.602;2023-02-28T13:02:44;13.47;;;9.50;;
37937;SDS011;23763;48.130;11.602;2023-02-28T13:08:50;12.00;;;8.23;;
37937;SDS011;23763;48.130;11.602;2023-02-28T13:14:59;13.70;;;9.23;;
37937;SDS011;23763;48.130;11.602;2023-02-28T13:17:10;13.27;;;8.87;;
37937;SDS011;23763;48.130;11.602;2023-02-28T13:24:52;13.73;;;9.37;;
37937;SDS011;23763;48.130;11.602;2023-02-28T13:29:50;12.80;;;9.40;;
37937;SDS011;23763;48.130;11.602;2023-02-28T13:32:31;14.30;;;9.70;;
37937;SDS011;23763;48.130;11.602;2023-02-28T13:39:56;12.97;;;9.03;;
37937;SDS011;23763;48.130;11.602;2023-02-28T13:42:35;11.47;;;8.10;;
37937;SDS011;23763;48.130;11.602;2023-02-28T13:47:39;18.07;;;10.27;;
37937;SDS011;23763;48.130;11.602;2023-02-28T14:06:54;13.60;;;9.60;;
37937;SDS011;23763;48.130;11.602;2023-02-28T14:09:23;14.53;;;9.80;;
37937;SDS011;23763;48.130;11.602;2023-02-28T14:11:52;13.60;;;8.50;;
37937;SDS011;23763;48.130;11.602;2023-02-28T14:17:03;12.47;;;9.10;;
37937;SDS011;23763;48.130;11.602;2023-02-28T14:19:31;16.50;;;9.00;;
37937;SDS011;23763;48.130;11.602;2023-02-28T14:22:18;13.83;;;8.83;;
37937;SDS011;23763;48.130;11.602;2023-02-28T14:35:46;13.97;;;8.90;;
37937;SDS011;23763;48.130;11.602;2023-02-28T14:38:26;14.90;;;8.77;;
37937;SDS011;23763;48.130;11.602;2023-02-28T14:40:56;18.17;;;8.97;;
37937;SDS011;23763;48.130;11.602;2023-02-28T14:43:26;13.57;;;9.63;;
37937;SDS011;23763;48.130;11.602;2023-02-28T14:46:00;12.30;;;9.13;;
37937;SDS011;23763;48.130;11.602;2023-02-28T14:48:27;15.17;;;9.57;;
37937;SDS011;23763;48.130;11.602;2023-02-28T14:50:55;14.27;;;9.67;;
37937;SDS011;23763;48.130;11.602;2023-02-28T14:53:23;18.00;;;10.47;;
37937;SDS011;23763;48.130;11.602;2023-02-28T14:55:53;12.50;;;9.97;;
37937;SDS011;23763;48.130;11.602;2023-02-28T14:58:26;14.07;;;9.57;;
37937;SDS011;23763;48.130;11.602;2023-02-28T15:00:59;13.30;;;8.70;;
37937;SDS011;23763;48.130;11.602;2023-02-28T15:03:31;11.90;;;9.17;;
37937;SDS011;23763;48.130;11.602;2023-02-28T15:05:59;10.27;;;7.40;;
37937;SDS011;23763;48.130;11.602;2023-02-28T15:08:46;14.43;;;8.83;;
37937;SDS011;23763;48.130;11.602;2023-02-28T15:11:16;15.10;;;9.40;;
37937;SDS011;23763;48.130;11.602;2023-02-28T15:13:50;14.10;;;9.07;;
37937;SDS011;23763;48.130;11.602;2023-02-28T15:16:19;15.33;;;9.23;;
37937;SDS011;23763;48.130;11.602;2023-02-28T15:21:17;15.30;;;9.10;;
37937;SDS011;23763;48.130;11.602;2023-02-28T15:23:46;16.30;;;9.70;;
37937;SDS011;23763;48.130;11.602;2023-02-28T15:26:20;13.97;;;9.70;;
37937;SDS011;23763;48.130;11.602;2023-02-28T15:28:51;13.77;;;9.23;;
37937;SDS011;23763;48.130;11.602;2023-02-28T15:31:28;13.00;;;9.13;;
37937;SDS011;23763;48.130;11.602;2023-02-28T15:33:57;17.17;;;12.60;;
37937;SDS011;23763;48.130;11.602;2023-02-28T15:36:32;12.43;;;8.57;;
37937;SDS011;23763;48.130;11.602;2023-02-28T15:39:02;14.13;;;8.67;;
37937;SDS011;23763;48.130;11.602;2023-02-28T15:41:43;14.97;;;9.83;;
37937;SDS011;23763;48.130;11.602;2023-02-28T15:47:02;13.67;;;9.23;;
37937;SDS011;23763;48.130;11.602;2023-02-28T15:49:39;11.83;;;9.20;;
37937;SDS011;23763;48.130;11.602;2023-02-28T15:52:13;12.57;;;8.80;;
37937;SDS011;23763;48.130;11.602;2023-02-28T15:54:41;13.10;;;8.60;;
37937;SDS011;23763;48.130;11.602;2023-02-28T15:57:22;12.10;;;9.27;;
37937;SDS011;23763;48.130;11.602;2023-02-28T15:59:56;14.37;;;8.90;;
37937;SDS011;23763;48.130;11.602;2023-02-28T16:02:32;14.97;;;8.73;;
37937;SDS011;23763;48.130;11.602;2023-02-28T16:07:31;12.67;;;8.40;;
37937;SDS011;23763;48.130;11.602;2023-02-28T16:09:57;13.83;;;9.33;;
37937;SDS011;23763;48.130;11.602;2023-02-28T16:12:28;13.93;;;8.90;;
37937;SDS011;23763;48.130;11.602;2023-02-28T16:14:58;16.97;;;9.50;;
37937;SDS011;23763;48.130;11.602;2023-02-28T16:17:29;12.73;;;8.57;;
37937;SDS011;23763;48.130;11.602;2023-02-28T16:19:59;11.97;;;8.60;;
37937;SDS011;23763;48.130;11.602;2023-02-28T16:22:24;14.13;;;9.23;;
37937;SDS011;23763;48.130;11.602;2023-02-28T16:24:50;13.80;;;8.80;;
37937;SDS011;23763;48.130;11.602;2023-02-28T16:27:30;13.17;;;9.37;;
37937;SDS011;23763;48.130;11.602;2023-02-28T16:29:58;13.47;;;8.63;;
37937;SDS011;23763;48.130;11.602;2023-02-28T16:32:25;14.20;;;9.27;;
37937;SDS011;23763;48.130;11.602;2023-02-28T16:34:50;15.43;;;9.57;;
37937;SDS011;23763;48.130;11.602;2023-02-28T16:37:16;12.97;;;9.70;;
37937;SDS011;23763;48.130;11.602;2023-02-28T16:39:43;12.43;;;10.10;;
37937;SDS011;23763;48.130;11.602;2023-02-28T16:42:17;11.93;;;9.20;;
37937;SDS011;23763;48.130;11.602;2023-02-28T16:44:52;14.77;;;9.90;;
37937;SDS011;23763;48.130;11.602;2023-02-28T16:47:19;15.33;;;9.97;;
37937;SDS011;23763;48.130;11.602;2023-02-28T16:49:45;13.13;;;9.43;;
37937;SDS011;23763;48.130;11.602;2023-02-28T16:52:12;16.93;;;10.00;;
37937;SDS011;23763;48.130;11.602;2023-02-28T16:54:39;20.90;;;10.93;;
37937;SDS011;23763;48.130;11.602;2023-02-28T16:57:06;20.10;;;9.97;;
37937;SDS011;23763;48.130;11.602;2023-02-28T16:59:40;19.97;;;10.40;;
37937;SDS011;23763;48.130;11.602;2023-02-28T17:02:12;19.93;;;10.20;;
37937;SDS011;23763;48.130;11.602;2023-02-28T17:04:39;15.57;;;9.83;;
37937;SDS011;23763;48.130;11.602;2023-02-28T17:07:08;14.57;;;10.00;;
37937;SDS011;23763;48.130;11.602;2023-02-28T17:09:37;14.60;;;10.07;;
37937;SDS011;23763;48.130;11.602;2023-02-28T17:12:03;13.47;;;9.77;;